createdAt,value
2018-05-08T00:00:01.810Z,14.48
2018-05-08T00:00:05.919Z,14.49
2018-05-08T00:00:10.087Z,14.46
2018-05-08T00:00:14.296Z,14.48
2018-05-08T00:00:18.618Z,14.48
2018-05-08T00:00:22.824Z,14.56
2018-05-08T00:00:26.920Z,14.45
2018-05-08T00:00:31.237Z,14.44
2018-05-08T00:00:35.447Z,14.45
2018-05-08T00:00:39.661Z,14.53
2018-05-08T00:00:43.774Z,14.56
2018-05-08T00:00:48.003Z,14.49
2018-05-08T00:00:52.342Z,14.44
2018-05-08T00:00:56.662Z,14.48
2018-05-08T00:01:00.868Z,14.45
2018-05-08T00:01:04.970Z,14.48
2018-05-08T00:01:09.285Z,14.48
2018-05-08T00:01:13.604Z,14.48
2018-05-08T00:01:17.919Z,14.45
2018-05-08T00:01:22.242Z,14.48
2018-05-08T00:01:26.562Z,14.49
2018-05-08T00:01:30.884Z,14.42
2018-05-08T00:01:35.208Z,14.49
2018-05-08T00:01:39.531Z,14.42
2018-05-08T00:01:43.638Z,14.48
2018-05-08T00:01:47.750Z,14.46
2018-05-08T00:01:52.070Z,14.44
2018-05-08T00:01:56.280Z,14.44
2018-05-08T00:02:00.599Z,14.45
2018-05-08T00:02:04.835Z,14.41
2018-05-08T00:02:09.052Z,14.42
2018-05-08T00:02:13.280Z,14.41
2018-05-08T00:02:17.508Z,14.42
2018-05-08T00:02:21.825Z,14.39
2018-05-08T00:02:26.035Z,14.49
2018-05-08T00:02:30.346Z,14.42
2018-05-08T00:02:34.555Z,14.44
2018-05-08T00:02:38.547Z,14.42
2018-05-08T00:02:42.753Z,14.45
2018-05-08T00:02:47.085Z,14.49
2018-05-08T00:02:51.300Z,14.42
2018-05-08T00:02:55.505Z,14.42
2018-05-08T00:02:59.815Z,14.45
2018-05-08T00:03:03.809Z,14.41
2018-05-08T00:03:08.022Z,14.44
2018-05-08T00:03:12.015Z,14.42
2018-05-08T00:03:16.113Z,14.48
2018-05-08T00:03:20.322Z,14.46
2018-05-08T00:03:24.430Z,14.41
2018-05-08T00:03:28.653Z,14.48
2018-05-08T00:03:32.860Z,14.46
2018-05-08T00:03:37.181Z,14.41
2018-05-08T00:03:41.179Z,14.42
2018-05-08T00:03:45.387Z,14.46
2018-05-08T00:03:49.597Z,14.46
2018-05-08T00:03:53.824Z,14.48
2018-05-08T00:03:58.038Z,14.45
2018-05-08T00:04:02.248Z,14.39
2018-05-08T00:04:06.465Z,14.38
2018-05-08T00:04:10.458Z,14.45
2018-05-08T00:04:14.774Z,14.42
2018-05-08T00:04:18.986Z,14.39
2018-05-08T00:04:23.215Z,14.49
2018-05-08T00:04:27.100Z,14.45
2018-05-08T00:04:31.413Z,14.42
2018-05-08T00:04:35.617Z,14.46
2018-05-08T00:04:39.735Z,14.46
2018-05-08T00:04:43.831Z,14.44
2018-05-08T00:04:48.039Z,14.45
2018-05-08T00:04:52.141Z,14.45
2018-05-08T00:04:56.346Z,14.44
2018-05-08T00:05:00.554Z,14.46
2018-05-08T00:05:04.821Z,14.42
2018-05-08T00:05:08.821Z,14.44
2018-05-08T00:05:13.037Z,14.45
2018-05-08T00:05:17.364Z,14.39
2018-05-08T00:05:21.680Z,14.36
2018-05-08T00:05:25.784Z,14.38
2018-05-08T00:05:29.992Z,14.41
2018-05-08T00:05:34.319Z,14.36
2018-05-08T00:05:38.524Z,14.44
2018-05-08T00:05:42.735Z,14.42
2018-05-08T00:05:46.962Z,14.41
2018-05-08T00:05:51.171Z,14.36
2018-05-08T00:05:55.497Z,14.34
2018-05-08T00:05:59.822Z,14.46
2018-05-08T00:06:04.193Z,14.29
2018-05-08T00:06:08.182Z,14.39
2018-05-08T00:06:12.391Z,14.24
2018-05-08T00:06:16.714Z,14.35
2018-05-08T00:06:20.928Z,14.31
2018-05-08T00:06:25.150Z,14.26
2018-05-08T00:06:29.476Z,14.39
2018-05-08T00:06:33.694Z,14.29
2018-05-08T00:06:37.900Z,14.35
2018-05-08T00:06:42.222Z,14.38
2018-05-08T00:06:46.341Z,14.3
2018-05-08T00:06:50.661Z,14.3
2018-05-08T00:06:54.869Z,14.29
2018-05-08T00:06:58.971Z,14.27
2018-05-08T00:07:03.249Z,14.35
2018-05-08T00:07:07.241Z,14.26
2018-05-08T00:07:11.456Z,14.34
2018-05-08T00:07:15.555Z,14.3
2018-05-08T00:07:19.770Z,14.34
2018-05-08T00:07:23.877Z,14.3
2018-05-08T00:07:28.084Z,14.3
2018-05-08T00:07:32.409Z,14.27
2018-05-08T00:07:36.515Z,14.26
2018-05-08T00:07:40.827Z,14.3
2018-05-08T00:07:45.041Z,14.31
2018-05-08T00:07:49.148Z,14.26
2018-05-08T00:07:53.459Z,14.26
2018-05-08T00:07:57.563Z,14.27
2018-05-08T00:08:01.979Z,14.35
2018-05-08T00:08:06.091Z,14.29
2018-05-08T00:08:10.215Z,14.3
2018-05-08T00:08:14.425Z,14.34
2018-05-08T00:08:18.742Z,14.23
2018-05-08T00:08:22.954Z,14.29
2018-05-08T00:08:27.163Z,14.26
2018-05-08T00:08:31.473Z,14.27
2018-05-08T00:08:35.570Z,14.24
2018-05-08T00:08:39.674Z,14.26
2018-05-08T00:08:43.662Z,14.21
2018-05-08T00:08:47.851Z,14.31
2018-05-08T00:08:52.595Z,14.3
2018-05-08T00:08:57.307Z,14.27
2018-05-08T00:09:01.801Z,14.3
2018-05-08T00:09:06.011Z,14.27
2018-05-08T00:09:10.003Z,14.27
2018-05-08T00:09:14.218Z,14.29
2018-05-08T00:09:18.321Z,14.26
2018-05-08T00:09:22.541Z,14.29
2018-05-08T00:09:26.536Z,14.23
2018-05-08T00:09:30.747Z,14.3
2018-05-08T00:09:34.864Z,14.3
2018-05-08T00:09:38.968Z,14.34
2018-05-08T00:09:43.182Z,14.27
2018-05-08T00:09:47.384Z,14.29
2018-05-08T00:09:51.377Z,14.29
2018-05-08T00:09:55.580Z,14.3
2018-05-08T00:09:59.899Z,14.27
2018-05-08T00:10:04.133Z,14.29
2018-05-08T00:10:08.347Z,14.21
2018-05-08T00:10:12.559Z,14.27
2018-05-08T00:10:16.669Z,14.24
2018-05-08T00:10:20.988Z,14.27
2018-05-08T00:10:25.203Z,14.26
2018-05-08T00:10:29.414Z,14.29
2018-05-08T00:10:33.512Z,14.19
2018-05-08T00:10:37.727Z,14.29
2018-05-08T00:10:42.045Z,14.27
2018-05-08T00:10:45.821Z,14.24
2018-05-08T00:10:50.032Z,14.23
2018-05-08T00:10:54.350Z,14.27
2018-05-08T00:10:58.569Z,14.23
2018-05-08T00:11:02.565Z,14.26
2018-05-08T00:11:06.891Z,14.24
2018-05-08T00:11:10.997Z,14.29
2018-05-08T00:11:14.988Z,14.19
2018-05-08T00:11:19.125Z,14.21
2018-05-08T00:11:23.333Z,14.21
2018-05-08T00:11:27.652Z,14.21
2018-05-08T00:11:31.857Z,14.27
2018-05-08T00:11:36.246Z,14.24
2018-05-08T00:11:40.453Z,14.27
2018-05-08T00:11:44.665Z,14.2
2018-05-08T00:11:48.663Z,14.21
2018-05-08T00:11:52.993Z,14.31
2018-05-08T00:11:57.314Z,14.24
2018-05-08T00:12:01.632Z,14.2
2018-05-08T00:12:05.951Z,14.2
2018-05-08T00:12:10.166Z,14.2
2018-05-08T00:12:14.384Z,14.23
2018-05-08T00:12:18.500Z,14.29
2018-05-08T00:12:22.813Z,14.21
2018-05-08T00:12:27.023Z,14.29
2018-05-08T00:12:31.356Z,14.19
2018-05-08T00:12:35.679Z,14.31
2018-05-08T00:12:39.885Z,14.23
2018-05-08T00:12:44.218Z,14.2
2018-05-08T00:12:48.326Z,14.23
2018-05-08T00:12:52.648Z,14.19
2018-05-08T00:12:56.959Z,14.2
2018-05-08T00:13:00.966Z,14.2
2018-05-08T00:13:05.093Z,14.2
2018-05-08T00:13:09.084Z,14.21
2018-05-08T00:13:13.296Z,14.21
2018-05-08T00:13:17.399Z,14.3
2018-05-08T00:13:21.733Z,14.21
2018-05-08T00:13:25.940Z,14.23
2018-05-08T00:13:30.151Z,14.23
2018-05-08T00:13:34.355Z,14.2
2018-05-08T00:13:38.676Z,14.21
2018-05-08T00:13:42.994Z,14.26
2018-05-08T00:13:47.199Z,14.29
2018-05-08T00:13:51.300Z,14.26
2018-05-08T00:13:55.614Z,14.26
2018-05-08T00:13:59.713Z,14.17
2018-05-08T00:14:04.077Z,14.17
2018-05-08T00:14:08.179Z,14.21
2018-05-08T00:14:12.496Z,14.17
2018-05-08T00:14:16.613Z,14.21
2018-05-08T00:14:20.931Z,14.19
2018-05-08T00:14:25.253Z,14.21
2018-05-08T00:14:29.572Z,14.21
2018-05-08T00:14:33.891Z,14.24
2018-05-08T00:14:37.994Z,14.21
2018-05-08T00:14:42.310Z,14.21
2018-05-08T00:14:46.642Z,14.23
2018-05-08T00:14:50.960Z,14.2
2018-05-08T00:14:55.175Z,14.21
2018-05-08T00:14:59.521Z,14.21
2018-05-08T00:15:03.846Z,14.23
2018-05-08T00:15:08.054Z,14.26
2018-05-08T00:15:12.268Z,14.23
2018-05-08T00:15:16.488Z,14.26
2018-05-08T00:15:20.591Z,14.21
2018-05-08T00:15:24.805Z,14.26
2018-05-08T00:15:28.903Z,14.24
2018-05-08T00:15:33.223Z,14.21
2018-05-08T00:15:37.430Z,14.21
2018-05-08T00:15:41.755Z,14.21
2018-05-08T00:15:45.963Z,14.26
2018-05-08T00:15:50.185Z,14.26
2018-05-08T00:15:54.507Z,14.17
2018-05-08T00:15:58.725Z,14.24
2018-05-08T00:16:02.901Z,14.2
2018-05-08T00:16:07.109Z,14.24
2018-05-08T00:16:11.218Z,14.21
2018-05-08T00:16:15.432Z,14.19
2018-05-08T00:16:19.761Z,14.19
2018-05-08T00:16:23.978Z,14.17
2018-05-08T00:16:28.196Z,14.17
2018-05-08T00:16:31.974Z,14.19
2018-05-08T00:16:36.298Z,14.21
2018-05-08T00:16:40.409Z,14.26
2018-05-08T00:16:44.691Z,14.26
2018-05-08T00:16:48.899Z,14.21
2018-05-08T00:16:53.128Z,14.21
2018-05-08T00:16:57.227Z,14.21
2018-05-08T00:17:01.439Z,14.21
2018-05-08T00:17:05.652Z,14.24
2018-05-08T00:17:09.970Z,14.2
2018-05-08T00:17:14.178Z,14.29
2018-05-08T00:17:18.495Z,14.26
2018-05-08T00:17:22.816Z,14.21
2018-05-08T00:17:27.125Z,14.2
2018-05-08T00:17:31.454Z,14.16
2018-05-08T00:17:35.670Z,14.2
2018-05-08T00:17:40.015Z,14.19
2018-05-08T00:17:44.287Z,14.24
2018-05-08T00:17:48.601Z,14.23
2018-05-08T00:17:52.593Z,14.24
2018-05-08T00:17:56.802Z,14.17
2018-05-08T00:18:01.017Z,14.17
2018-05-08T00:18:05.384Z,14.16
2018-05-08T00:18:09.485Z,14.24
2018-05-08T00:18:13.583Z,14.17
2018-05-08T00:18:17.678Z,14.13
2018-05-08T00:18:22.042Z,14.13
2018-05-08T00:18:26.250Z,14.16
2018-05-08T00:18:30.561Z,14.26
2018-05-08T00:18:34.768Z,14.24
2018-05-08T00:18:38.976Z,14.17
2018-05-08T00:18:43.181Z,14.17
2018-05-08T00:18:47.285Z,14.12
2018-05-08T00:18:51.503Z,14.17
2018-05-08T00:18:55.821Z,14.23
2018-05-08T00:19:00.152Z,14.2
2018-05-08T00:19:04.038Z,14.19
2018-05-08T00:19:08.252Z,14.16
2018-05-08T00:19:12.486Z,14.21
2018-05-08T00:19:16.584Z,14.12
2018-05-08T00:19:20.899Z,14.17
2018-05-08T00:19:25.121Z,14.16
2018-05-08T00:19:29.452Z,14.19
2018-05-08T00:19:33.548Z,14.12
2018-05-08T00:19:37.884Z,14.17
2018-05-08T00:19:42.103Z,14.16
2018-05-08T00:19:46.199Z,14.13
2018-05-08T00:19:50.408Z,14.17
2018-05-08T00:19:54.621Z,14.19
2018-05-08T00:19:58.829Z,14.21
2018-05-08T00:20:03.016Z,14.17
2018-05-08T00:20:07.122Z,14.17
2018-05-08T00:20:11.236Z,14.13
2018-05-08T00:20:15.223Z,14.21
2018-05-08T00:20:19.547Z,14.21
2018-05-08T00:20:23.646Z,14.08
2018-05-08T00:20:27.863Z,14.17
2018-05-08T00:20:32.194Z,14.19
2018-05-08T00:20:36.407Z,14.16
2018-05-08T00:20:40.738Z,14.16
2018-05-08T00:20:45.073Z,14.09
2018-05-08T00:20:49.177Z,14.13
2018-05-08T00:20:53.492Z,14.16
2018-05-08T00:20:57.594Z,14.21
2018-05-08T00:21:01.694Z,14.13
2018-05-08T00:21:06.016Z,14.12
2018-05-08T00:21:10.235Z,14.11
2018-05-08T00:21:14.447Z,14.12
2018-05-08T00:21:18.764Z,14.09
2018-05-08T00:21:22.868Z,14.13
2018-05-08T00:21:27.187Z,14.17
2018-05-08T00:21:31.503Z,14.13
2018-05-08T00:21:35.707Z,14.04
2018-05-08T00:21:40.029Z,14.13
2018-05-08T00:21:44.235Z,14.01
2018-05-08T00:21:48.439Z,14.09
2018-05-08T00:21:52.643Z,14.04
2018-05-08T00:21:56.744Z,14.09
2018-05-08T00:22:00.949Z,14.06
2018-05-08T00:22:05.057Z,14.06
2018-05-08T00:22:09.372Z,14.12
2018-05-08T00:22:13.471Z,14.08
2018-05-08T00:22:17.462Z,14.12
2018-05-08T00:22:21.669Z,14.05
2018-05-08T00:22:25.872Z,14.16
2018-05-08T00:22:30.271Z,14.06
2018-05-08T00:22:34.377Z,14.08
2018-05-08T00:22:38.692Z,14.11
2018-05-08T00:22:42.790Z,14.04
2018-05-08T00:22:47.119Z,14.06
2018-05-08T00:22:51.325Z,14.12
2018-05-08T00:22:55.640Z,14.04
2018-05-08T00:22:59.859Z,14.06
2018-05-08T00:23:04.044Z,14.06
2018-05-08T00:23:08.155Z,14.11
2018-05-08T00:23:12.495Z,14.04
2018-05-08T00:23:16.491Z,14.13
2018-05-08T00:23:20.593Z,14.08
2018-05-08T00:23:24.920Z,14.08
2018-05-08T00:23:29.142Z,14.12
2018-05-08T00:23:33.362Z,14.09
2018-05-08T00:23:37.566Z,14.17
2018-05-08T00:23:41.885Z,14.16
2018-05-08T00:23:45.878Z,14.12
2018-05-08T00:23:49.876Z,14.08
2018-05-08T00:23:54.084Z,14.06
2018-05-08T00:23:58.289Z,14.12
2018-05-08T00:24:02.547Z,14.04
2018-05-08T00:24:06.757Z,14.13
2018-05-08T00:24:10.971Z,14.11
2018-05-08T00:24:15.185Z,14.08
2018-05-08T00:24:19.396Z,14.06
2018-05-08T00:24:23.496Z,14.09
2018-05-08T00:24:27.597Z,14.11
2018-05-08T00:24:31.915Z,14.08
2018-05-08T00:24:36.226Z,14.02
2018-05-08T00:24:40.402Z,14.06
2018-05-08T00:24:44.612Z,14.13
2018-05-08T00:24:48.816Z,14.09
2018-05-08T00:24:53.025Z,14.08
2018-05-08T00:24:57.125Z,14.08
2018-05-08T00:25:01.343Z,14.06
2018-05-08T00:25:05.461Z,13.99
2018-05-08T00:25:09.564Z,14.04
2018-05-08T00:25:13.885Z,14.11
2018-05-08T00:25:18.203Z,14.08
2018-05-08T00:25:22.302Z,14.09
2018-05-08T00:25:26.397Z,14.09
2018-05-08T00:25:30.492Z,14.09
2018-05-08T00:25:34.601Z,14.08
2018-05-08T00:25:38.807Z,14.09
2018-05-08T00:25:43.032Z,14.09
2018-05-08T00:25:46.921Z,14.05
2018-05-08T00:25:51.238Z,14.09
2018-05-08T00:25:55.460Z,14.09
2018-05-08T00:25:59.667Z,14.06
2018-05-08T00:26:03.768Z,14.09
2018-05-08T00:26:07.878Z,14.05
2018-05-08T00:26:12.099Z,14.11
2018-05-08T00:26:16.197Z,14.09
2018-05-08T00:26:20.515Z,14.08
2018-05-08T00:26:24.829Z,14.05
2018-05-08T00:26:29.034Z,14.05
2018-05-08T00:26:33.353Z,14.05
2018-05-08T00:26:37.563Z,13.99
2018-05-08T00:26:41.782Z,14.04
2018-05-08T00:26:45.883Z,14.12
2018-05-08T00:26:50.093Z,14.09
2018-05-08T00:26:54.391Z,14.05
2018-05-08T00:26:58.613Z,14.05
2018-05-08T00:27:02.761Z,14.08
2018-05-08T00:27:06.869Z,14.08
2018-05-08T00:27:11.082Z,14.09
2018-05-08T00:27:15.291Z,14.08
2018-05-08T00:27:19.400Z,14.05
2018-05-08T00:27:23.716Z,14.08
2018-05-08T00:27:27.705Z,14.08
2018-05-08T00:27:32.000Z,14.04
2018-05-08T00:27:36.325Z,14.08
2018-05-08T00:27:40.528Z,14.09
2018-05-08T00:27:44.733Z,14.06
2018-05-08T00:27:48.945Z,14.06
2018-05-08T00:27:53.276Z,14.04
2018-05-08T00:27:57.594Z,14.09
2018-05-08T00:28:01.902Z,14.06
2018-05-08T00:28:05.999Z,14.09
2018-05-08T00:28:10.193Z,14.06
2018-05-08T00:28:14.301Z,14.11
2018-05-08T00:28:18.629Z,14.05
2018-05-08T00:28:22.954Z,14.04
2018-05-08T00:28:27.156Z,14.04
2018-05-08T00:28:31.474Z,14.06
2018-05-08T00:28:35.684Z,14.09
2018-05-08T00:28:39.900Z,14.05
2018-05-08T00:28:44.120Z,14.06
2018-05-08T00:28:48.331Z,14.05
2018-05-08T00:28:52.433Z,14.05
2018-05-08T00:28:56.537Z,14.06
2018-05-08T00:29:00.750Z,14.04
2018-05-08T00:29:04.856Z,14.06
2018-05-08T00:29:09.074Z,14.04
2018-05-08T00:29:13.299Z,14.06
2018-05-08T00:29:17.284Z,14.04
2018-05-08T00:29:21.502Z,14.01
2018-05-08T00:29:25.821Z,14.02
2018-05-08T00:29:29.811Z,14.08
2018-05-08T00:29:33.801Z,14.02
2018-05-08T00:29:38.016Z,14.02
2018-05-08T00:29:42.232Z,13.99
2018-05-08T00:29:46.338Z,14.02
2018-05-08T00:29:50.657Z,14.05
2018-05-08T00:29:54.917Z,14.04
2018-05-08T00:29:59.124Z,14.02
2018-05-08T00:30:03.229Z,14.04
2018-05-08T00:30:07.336Z,14.02
2018-05-08T00:30:11.680Z,14.04
2018-05-08T00:30:16.004Z,14.06
2018-05-08T00:30:20.331Z,14.02
2018-05-08T00:30:24.648Z,14.05
2018-05-08T00:30:28.870Z,14.05
2018-05-08T00:30:33.194Z,14.05
2018-05-08T00:30:37.403Z,14.04
2018-05-08T00:30:41.720Z,14.01
2018-05-08T00:30:46.028Z,14.05
2018-05-08T00:30:50.020Z,14.02
2018-05-08T00:30:54.120Z,14.05
2018-05-08T00:30:58.440Z,14.06
2018-05-08T00:31:02.559Z,14.04
2018-05-08T00:31:06.778Z,14.06
2018-05-08T00:31:10.991Z,14.04
2018-05-08T00:31:15.371Z,14.02
2018-05-08T00:31:19.366Z,14.04
2018-05-08T00:31:23.681Z,14.04
2018-05-08T00:31:27.776Z,14.02
2018-05-08T00:31:31.769Z,14.04
2018-05-08T00:31:36.094Z,14.02
2018-05-08T00:31:40.303Z,14.02
2018-05-08T00:31:44.516Z,14.02
2018-05-08T00:31:48.832Z,14.04
2018-05-08T00:31:53.149Z,14.04
2018-05-08T00:31:57.358Z,14.05
2018-05-08T00:32:01.580Z,14.02
2018-05-08T00:32:05.890Z,14.01
2018-05-08T00:32:09.989Z,14.05
2018-05-08T00:32:14.200Z,14.02
2018-05-08T00:32:18.236Z,14.02
2018-05-08T00:32:22.566Z,14.02
2018-05-08T00:32:26.780Z,14.01
2018-05-08T00:32:30.989Z,14.05
2018-05-08T00:32:35.305Z,14.12
2018-05-08T00:32:39.514Z,14.04
2018-05-08T00:32:43.723Z,14.02
2018-05-08T00:32:47.825Z,14.02
2018-05-08T00:32:52.035Z,14.05
2018-05-08T00:32:56.357Z,14.04
2018-05-08T00:33:00.564Z,14.04
2018-05-08T00:33:04.717Z,14.02
2018-05-08T00:33:08.927Z,14.06
2018-05-08T00:33:13.027Z,14.02
2018-05-08T00:33:17.341Z,14.06
2018-05-08T00:33:21.650Z,14.05
2018-05-08T00:33:25.862Z,14.02
2018-05-08T00:33:29.964Z,14.02
2018-05-08T00:33:34.278Z,14.01
2018-05-08T00:33:38.560Z,14.02
2018-05-08T00:33:42.769Z,14.04
2018-05-08T00:33:46.883Z,13.96
2018-05-08T00:33:51.205Z,14.06
2018-05-08T00:33:55.409Z,13.98
2018-05-08T00:33:59.727Z,14.09
2018-05-08T00:34:03.950Z,14.05
2018-05-08T00:34:08.058Z,14.02
2018-05-08T00:34:12.259Z,14.01
2018-05-08T00:34:16.579Z,14.02
2018-05-08T00:34:20.899Z,14.05
2018-05-08T00:34:25.152Z,13.99
2018-05-08T00:34:29.473Z,13.99
2018-05-08T00:34:33.582Z,13.99
2018-05-08T00:34:37.789Z,14.01
2018-05-08T00:34:42.001Z,14.04
2018-05-08T00:34:46.103Z,13.94
2018-05-08T00:34:50.331Z,13.99
2018-05-08T00:34:54.649Z,14.04
2018-05-08T00:34:58.751Z,13.99
2018-05-08T00:35:02.974Z,13.98
2018-05-08T00:35:07.188Z,13.98
2018-05-08T00:35:11.500Z,14.04
2018-05-08T00:35:15.707Z,14.04
2018-05-08T00:35:19.917Z,14.01
2018-05-08T00:35:24.231Z,14.05
2018-05-08T00:35:28.436Z,14.02
2018-05-08T00:35:32.536Z,14.01
2018-05-08T00:35:36.739Z,14.05
2018-05-08T00:35:41.140Z,13.93
2018-05-08T00:35:45.473Z,13.96
2018-05-08T00:35:49.686Z,14.06
2018-05-08T00:35:53.986Z,13.99
2018-05-08T00:35:58.314Z,14.01
2018-05-08T00:36:02.521Z,14.01
2018-05-08T00:36:06.844Z,14.02
2018-05-08T00:36:11.053Z,14.01
2018-05-08T00:36:15.266Z,14.02
2018-05-08T00:36:19.473Z,13.9
2018-05-08T00:36:23.789Z,14.01
2018-05-08T00:36:27.993Z,14.04
2018-05-08T00:36:32.201Z,14.09
2018-05-08T00:36:36.524Z,13.99
2018-05-08T00:36:40.845Z,14.02
2018-05-08T00:36:44.948Z,14.01
2018-05-08T00:36:49.159Z,14.05
2018-05-08T00:36:53.371Z,14.05
2018-05-08T00:36:57.479Z,14.04
2018-05-08T00:37:01.683Z,14.02
2018-05-08T00:37:05.892Z,14.02
2018-05-08T00:37:10.114Z,13.88
2018-05-08T00:37:14.425Z,13.96
2018-05-08T00:37:18.633Z,14.04
2018-05-08T00:37:22.731Z,13.96
2018-05-08T00:37:27.070Z,14.05
2018-05-08T00:37:31.294Z,13.91
2018-05-08T00:37:35.611Z,14.01
2018-05-08T00:37:39.939Z,14.02
2018-05-08T00:37:44.044Z,14.04
2018-05-08T00:37:48.257Z,14.01
2018-05-08T00:37:52.581Z,13.9
2018-05-08T00:37:56.899Z,14.05
2018-05-08T00:38:01.108Z,14.01
2018-05-08T00:38:05.422Z,14.06
2018-05-08T00:38:09.629Z,13.98
2018-05-08T00:38:13.728Z,13.96
2018-05-08T00:38:18.054Z,13.93
2018-05-08T00:38:22.152Z,14.01
2018-05-08T00:38:26.363Z,14.04
2018-05-08T00:38:30.721Z,14.05
2018-05-08T00:38:34.933Z,14.05
2018-05-08T00:38:39.151Z,14.01
2018-05-08T00:38:43.355Z,13.98
2018-05-08T00:38:47.676Z,14.01
2018-05-08T00:38:51.883Z,13.91
2018-05-08T00:38:56.096Z,13.98
2018-05-08T00:39:00.300Z,13.98
2018-05-08T00:39:04.399Z,14.02
2018-05-08T00:39:08.605Z,13.99
2018-05-08T00:39:12.927Z,14.06
2018-05-08T00:39:17.271Z,13.98
2018-05-08T00:39:21.595Z,14.04
2018-05-08T00:39:25.812Z,13.98
2018-05-08T00:39:30.133Z,14.01
2018-05-08T00:39:34.345Z,14.05
2018-05-08T00:39:38.443Z,14.02
2018-05-08T00:39:42.655Z,14.01
2018-05-08T00:39:46.978Z,14.02
2018-05-08T00:39:51.292Z,13.91
2018-05-08T00:39:55.397Z,13.96
2018-05-08T00:39:59.711Z,14.06
2018-05-08T00:40:04.131Z,14.08
2018-05-08T00:40:08.350Z,13.98
2018-05-08T00:40:12.561Z,14.11
2018-05-08T00:40:16.667Z,13.88
2018-05-08T00:40:20.982Z,13.99
2018-05-08T00:40:25.380Z,13.93
2018-05-08T00:40:29.693Z,14.02
2018-05-08T00:40:33.802Z,14.06
2018-05-08T00:40:38.115Z,14.09
2018-05-08T00:40:42.332Z,14.02
2018-05-08T00:40:46.433Z,13.93
2018-05-08T00:40:50.640Z,14.09
2018-05-08T00:40:54.874Z,13.99
2018-05-08T00:40:59.100Z,13.93
2018-05-08T00:41:03.207Z,13.93
2018-05-08T00:41:07.107Z,14.01
2018-05-08T00:41:11.315Z,13.91
2018-05-08T00:41:15.525Z,14.04
2018-05-08T00:41:19.840Z,14.02
2018-05-08T00:41:23.943Z,13.93
2018-05-08T00:41:28.287Z,14.05
2018-05-08T00:41:31.952Z,13.99
2018-05-08T00:41:36.265Z,13.99
2018-05-08T00:41:40.584Z,13.9
2018-05-08T00:41:44.800Z,14.02
2018-05-08T00:41:49.016Z,14.01
2018-05-08T00:41:53.136Z,14.04
2018-05-08T00:41:57.357Z,14.04
2018-05-08T00:42:01.680Z,13.99
2018-05-08T00:42:06.106Z,13.98
2018-05-08T00:42:10.319Z,13.98
2018-05-08T00:42:14.529Z,13.9
2018-05-08T00:42:18.738Z,13.99
2018-05-08T00:42:23.162Z,13.99
2018-05-08T00:42:27.042Z,14.01
2018-05-08T00:42:31.247Z,14.01
2018-05-08T00:42:35.557Z,14.12
2018-05-08T00:42:39.874Z,14.01
2018-05-08T00:42:44.201Z,13.99
2018-05-08T00:42:48.418Z,14.06
2018-05-08T00:42:52.630Z,14.04
2018-05-08T00:42:56.950Z,13.98
2018-05-08T00:43:01.276Z,13.98
2018-05-08T00:43:05.271Z,14.01
2018-05-08T00:43:09.374Z,13.98
2018-05-08T00:43:13.584Z,13.94
2018-05-08T00:43:17.713Z,13.93
2018-05-08T00:43:22.039Z,13.99
2018-05-08T00:43:26.364Z,14.01
2018-05-08T00:43:30.675Z,14.01
2018-05-08T00:43:34.992Z,14.05
2018-05-08T00:43:39.323Z,14.05
2018-05-08T00:43:43.431Z,13.98
2018-05-08T00:43:47.531Z,13.93
2018-05-08T00:43:51.628Z,13.98
2018-05-08T00:43:55.940Z,14.01
2018-05-08T00:44:00.147Z,13.98
2018-05-08T00:44:04.248Z,13.96
2018-05-08T00:44:08.464Z,14.01
2018-05-08T00:44:12.566Z,13.94
2018-05-08T00:44:16.672Z,14.04
2018-05-08T00:44:20.877Z,13.94
2018-05-08T00:44:25.082Z,14.02
2018-05-08T00:44:29.081Z,14.01
2018-05-08T00:44:33.288Z,14.02
2018-05-08T00:44:37.290Z,14.05
2018-05-08T00:44:41.614Z,14.04
2018-05-08T00:44:45.828Z,14.02
2018-05-08T00:44:50.052Z,13.99
2018-05-08T00:44:54.159Z,14.02
2018-05-08T00:44:58.366Z,14.04
2018-05-08T00:45:02.578Z,13.99
2018-05-08T00:45:06.682Z,14.05
2018-05-08T00:45:11.000Z,14.04
2018-05-08T00:45:15.103Z,14.01
2018-05-08T00:45:19.215Z,14.06
2018-05-08T00:45:23.526Z,14.02
2018-05-08T00:45:27.736Z,13.99
2018-05-08T00:45:31.840Z,13.99
2018-05-08T00:45:36.052Z,13.99
2018-05-08T00:45:40.266Z,13.98
2018-05-08T00:45:44.578Z,14.05
2018-05-08T00:45:48.687Z,14.04
2018-05-08T00:45:53.014Z,13.99
2018-05-08T00:45:57.236Z,13.99
2018-05-08T00:46:01.342Z,14.01
2018-05-08T00:46:05.459Z,13.98
2018-05-08T00:46:09.564Z,14.01
2018-05-08T00:46:13.664Z,13.99
2018-05-08T00:46:17.875Z,14.04
2018-05-08T00:46:22.191Z,14.04
2018-05-08T00:46:26.289Z,13.94
2018-05-08T00:46:30.385Z,13.96
2018-05-08T00:46:34.702Z,14.04
2018-05-08T00:46:39.020Z,13.93
2018-05-08T00:46:43.332Z,14.04
2018-05-08T00:46:47.547Z,14.12
2018-05-08T00:46:51.766Z,14.08
2018-05-08T00:46:56.085Z,13.99
2018-05-08T00:47:00.405Z,13.98
2018-05-08T00:47:04.613Z,13.93
2018-05-08T00:47:08.822Z,14.01
2018-05-08T00:47:13.032Z,14.02
2018-05-08T00:47:17.133Z,13.96
2018-05-08T00:47:21.342Z,13.96
2018-05-08T00:47:25.558Z,14.02
2018-05-08T00:47:29.768Z,14.06
2018-05-08T00:47:34.087Z,14.02
2018-05-08T00:47:38.085Z,13.99
2018-05-08T00:47:42.462Z,14.06
2018-05-08T00:47:46.666Z,13.96
2018-05-08T00:47:51.023Z,14.04
2018-05-08T00:47:55.351Z,13.99
2018-05-08T00:47:59.561Z,13.99
2018-05-08T00:48:03.652Z,13.99
2018-05-08T00:48:07.654Z,13.99
2018-05-08T00:48:11.764Z,14.02
2018-05-08T00:48:15.859Z,13.91
2018-05-08T00:48:19.852Z,13.99
2018-05-08T00:48:24.058Z,13.93
2018-05-08T00:48:28.162Z,13.91
2018-05-08T00:48:32.374Z,14.04
2018-05-08T00:48:36.761Z,14.02
2018-05-08T00:48:41.073Z,14.04
2018-05-08T00:48:45.386Z,13.96
2018-05-08T00:48:49.603Z,13.91
2018-05-08T00:48:53.915Z,14.01
2018-05-08T00:48:58.118Z,14.02
2018-05-08T00:49:02.326Z,14.01
2018-05-08T00:49:06.427Z,13.98
2018-05-08T00:49:10.640Z,13.94
2018-05-08T00:49:14.844Z,14.01
2018-05-08T00:49:19.057Z,13.93
2018-05-08T00:49:23.051Z,13.99
2018-05-08T00:49:26.932Z,14.04
2018-05-08T00:49:31.143Z,14.05
2018-05-08T00:49:35.463Z,13.91
2018-05-08T00:49:39.576Z,13.99
2018-05-08T00:49:43.778Z,14.04
2018-05-08T00:49:47.771Z,13.98
2018-05-08T00:49:51.982Z,13.96
2018-05-08T00:49:56.188Z,14.01
2018-05-08T00:50:00.509Z,14.04
2018-05-08T00:50:04.723Z,13.96
2018-05-08T00:50:08.944Z,13.96
2018-05-08T00:50:13.275Z,14.01
2018-05-08T00:50:17.489Z,14.02
2018-05-08T00:50:21.374Z,13.96
2018-05-08T00:50:25.473Z,13.94
2018-05-08T00:50:29.572Z,13.94
2018-05-08T00:50:33.883Z,13.93
2018-05-08T00:50:38.095Z,13.94
2018-05-08T00:50:42.311Z,14.01
2018-05-08T00:50:46.518Z,13.9
2018-05-08T00:50:50.515Z,13.99
2018-05-08T00:50:54.833Z,13.9
2018-05-08T00:50:59.052Z,13.94
2018-05-08T00:51:03.379Z,13.96
2018-05-08T00:51:07.484Z,13.91
2018-05-08T00:51:11.910Z,13.98
2018-05-08T00:51:15.817Z,13.93
2018-05-08T00:51:20.138Z,14.05
2018-05-08T00:51:24.348Z,13.88
2018-05-08T00:51:28.449Z,13.94
2018-05-08T00:51:32.550Z,13.94
2018-05-08T00:51:36.767Z,13.93
2018-05-08T00:51:41.083Z,13.94
2018-05-08T00:51:45.189Z,13.96
2018-05-08T00:51:49.507Z,13.86
2018-05-08T00:51:53.825Z,13.96
2018-05-08T00:51:58.139Z,13.94
2018-05-08T00:52:02.509Z,13.93
2018-05-08T00:52:06.396Z,13.94
2018-05-08T00:52:10.711Z,13.91
2018-05-08T00:52:15.026Z,13.96
2018-05-08T00:52:19.346Z,13.94
2018-05-08T00:52:23.553Z,13.93
2018-05-08T00:52:27.870Z,14.02
2018-05-08T00:52:31.972Z,13.88
2018-05-08T00:52:36.186Z,13.96
2018-05-08T00:52:40.504Z,13.93
2018-05-08T00:52:44.827Z,13.98
2018-05-08T00:52:49.141Z,13.94
2018-05-08T00:52:53.349Z,13.96
2018-05-08T00:52:57.447Z,13.98
2018-05-08T00:53:01.545Z,13.93
2018-05-08T00:53:05.662Z,13.93
2018-05-08T00:53:09.765Z,13.9
2018-05-08T00:53:14.078Z,13.88
2018-05-08T00:53:18.296Z,13.86
2018-05-08T00:53:22.609Z,13.93
2018-05-08T00:53:26.713Z,13.88
2018-05-08T00:53:31.087Z,13.87
2018-05-08T00:53:35.393Z,13.91
2018-05-08T00:53:39.602Z,13.87
2018-05-08T00:53:43.882Z,13.88
2018-05-08T00:53:48.096Z,13.84
2018-05-08T00:53:52.203Z,13.88
2018-05-08T00:53:56.302Z,13.86
2018-05-08T00:54:00.520Z,13.9
2018-05-08T00:54:04.838Z,13.83
2018-05-08T00:54:09.044Z,13.9
2018-05-08T00:54:13.250Z,13.9
2018-05-08T00:54:17.265Z,13.84